createdAt,value
2022-12-08T00:03:25.984Z,9.88
2022-12-08T00:20:02.903Z,7.47
2022-12-08T00:23:46.676Z,6.75
2022-12-08T00:27:31.765Z,6.40
2022-12-08T00:35:15.980Z,7.70
2022-12-08T00:38:59.588Z,6.53
2022-12-08T00:42:43.409Z,7.35
2022-12-08T00:46:32.119Z,7.72
2022-12-08T00:50:12.116Z,6.78
2022-12-08T00:53:53.938Z,6.43
2022-12-08T01:01:49.952Z,6.82
2022-12-08T01:05:37.950Z,6.18
2022-12-08T01:13:43.967Z,6.50
2022-12-08T01:28:51.778Z,5.90
2022-12-08T01:32:52.047Z,5.57
2022-12-08T01:44:43.530Z,5.97
2022-12-08T01:48:33.111Z,7.28
2022-12-08T01:53:03.565Z,7.70
2022-12-08T01:57:18.905Z,4.70
2022-12-08T02:01:00.275Z,4.53
2022-12-08T02:08:45.833Z,4.12
2022-12-08T02:16:43.726Z,5.65
2022-12-08T02:37:23.845Z,5.53
2022-12-08T02:41:17.389Z,5.85
2022-12-08T02:45:16.454Z,4.15
2022-12-08T02:49:40.745Z,7.00
2022-12-08T03:05:59.482Z,8.73
2022-12-08T03:09:55.559Z,5.95
2022-12-08T03:25:06.939Z,6.87
2022-12-08T03:28:53.663Z,5.47
2022-12-08T03:36:41.724Z,6.20
2022-12-08T03:40:19.595Z,7.90
2022-12-08T03:51:36.646Z,5.82
2022-12-08T03:59:03.579Z,6.72
2022-12-08T04:02:36.805Z,7.78
2022-12-08T04:06:14.415Z,7.15
2022-12-08T04:13:44.221Z,6.03
2022-12-08T04:17:20.651Z,7.28
2022-12-08T04:20:52.734Z,7.87
2022-12-08T04:24:23.483Z,6.32
2022-12-08T04:28:01.394Z,8.38
2022-12-08T04:39:20.579Z,5.28
2022-12-08T04:46:48.603Z,5.80
2022-12-08T04:54:11.537Z,7.60
2022-12-08T04:57:52.501Z,8.00
2022-12-08T05:01:32.945Z,8.73
2022-12-08T05:05:12.886Z,8.07
2022-12-08T05:08:59.431Z,8.48
2022-12-08T05:16:30.800Z,7.97
2022-12-08T05:20:11.675Z,9.70
2022-12-08T05:23:51.199Z,6.50
2022-12-08T05:27:30.493Z,8.32
2022-12-08T05:31:10.523Z,5.90
2022-12-08T05:34:55.612Z,7.85
2022-12-08T05:38:31.479Z,5.45
2022-12-08T05:46:18.533Z,7.50
2022-12-08T05:49:55.869Z,8.38
2022-12-08T05:57:43.909Z,6.78
2022-12-08T06:01:31.998Z,6.35
2022-12-08T06:04:59.887Z,6.75
2022-12-08T06:12:21.907Z,8.25
2022-12-08T06:16:07.782Z,8.40
2022-12-08T06:19:32.808Z,8.73
2022-12-08T06:23:06.904Z,9.93
2022-12-08T06:31:12.477Z,6.53
2022-12-08T07:40:53.451Z,8.48
2022-12-08T07:59:39.526Z,11.32
2022-12-08T08:03:48.098Z,8.13
2022-12-08T08:11:19.013Z,9.50
2022-12-08T08:18:45.448Z,8.13
2022-12-08T08:26:35.767Z,8.13
2022-12-08T08:30:20.477Z,10.38
2022-12-08T08:34:07.547Z,10.77
2022-12-08T08:37:48.845Z,11.25
2022-12-08T08:45:06.559Z,11.18
2022-12-08T08:49:02.024Z,10.40
2022-12-08T08:52:46.125Z,9.35
2022-12-08T08:56:26.480Z,8.82
2022-12-08T09:00:05.902Z,9.57
2022-12-08T09:03:25.359Z,9.95
2022-12-08T09:10:54.617Z,7.95
2022-12-08T09:14:33.903Z,7.05
2022-12-08T09:18:34.647Z,9.68
2022-12-08T09:22:05.331Z,8.15
2022-12-08T09:29:17.921Z,8.50
2022-12-08T09:33:15.313Z,6.57
2022-12-08T09:36:51.786Z,7.07
2022-12-08T09:40:28.369Z,6.05
2022-12-08T10:17:51.328Z,5.18
2022-12-08T10:29:37.159Z,5.62
2022-12-08T11:18:13.613Z,4.03
2022-12-08T11:29:37.991Z,3.28
2022-12-08T11:33:30.639Z,4.37
2022-12-08T11:37:27.482Z,4.80
2022-12-08T11:41:15.816Z,5.15
2022-12-08T11:44:38.617Z,3.97
2022-12-08T11:48:23.120Z,6.15
2022-12-08T11:51:46.734Z,4.97
2022-12-08T11:55:43.968Z,5.50
2022-12-08T11:59:02.800Z,4.87
2022-12-08T12:02:31.322Z,5.60
2022-12-08T12:06:58.556Z,5.18
2022-12-08T12:14:42.965Z,4.55
2022-12-08T12:18:22.940Z,4.43
2022-12-08T12:21:53.737Z,6.45
2022-12-08T12:25:37.840Z,3.85
2022-12-08T12:29:31.517Z,5.72
2022-12-08T12:33:04.588Z,4.65
2022-12-08T12:37:13.712Z,4.82
2022-12-08T12:40:53.701Z,3.33
2022-12-08T12:44:23.095Z,4.40
2022-12-08T12:48:13.567Z,5.40
2022-12-08T12:51:42.784Z,4.20
2022-12-08T12:55:28.725Z,4.03
2022-12-08T12:58:55.807Z,5.05
2022-12-08T13:02:27.407Z,5.18
2022-12-08T13:06:02.482Z,4.80
2022-12-08T13:09:46.257Z,5.97
2022-12-08T13:13:33.983Z,4.60
2022-12-08T13:17:17.208Z,4.22
2022-12-08T13:20:49.679Z,5.30
2022-12-08T13:24:20.898Z,5.85
2022-12-08T13:27:57.040Z,5.47
2022-12-08T13:31:51.988Z,5.10
2022-12-08T13:35:34.092Z,3.97
2022-12-08T13:39:07.151Z,4.25
2022-12-08T13:53:34.152Z,4.20
2022-12-08T13:55:49.826Z,4.45
2022-12-08T13:58:51.698Z,4.15
2022-12-08T14:02:21.298Z,3.70
2022-12-08T14:06:11.660Z,4.97
2022-12-08T14:09:09.980Z,5.20
2022-12-08T14:13:05.992Z,4.75
2022-12-08T14:16:30.006Z,6.37
2022-12-08T14:20:10.663Z,4.65
2022-12-08T14:23:28.026Z,5.55
2022-12-08T14:27:00.912Z,4.28
2022-12-08T14:30:27.468Z,4.57
2022-12-08T14:34:04.323Z,4.80
2022-12-08T14:37:19.106Z,5.57
2022-12-08T14:41:07.230Z,4.37
2022-12-08T14:44:45.492Z,4.85
2022-12-08T14:48:42.511Z,5.60
2022-12-08T14:52:13.306Z,4.72
2022-12-08T14:55:50.859Z,4.55
2022-12-08T14:59:23.233Z,4.18
2022-12-08T15:02:57.283Z,4.35
2022-12-08T15:06:12.347Z,5.45
2022-12-08T15:10:16.019Z,4.43
2022-12-08T15:13:36.404Z,5.12
2022-12-08T15:17:46.666Z,6.03
2022-12-08T15:21:10.081Z,4.32
2022-12-08T15:24:40.701Z,5.78
2022-12-08T15:28:02.138Z,5.68
2022-12-08T15:31:46.122Z,5.57
2022-12-08T15:35:15.531Z,4.93
2022-12-08T15:38:55.538Z,5.93
2022-12-08T15:42:39.000Z,4.93
2022-12-08T15:46:04.582Z,5.35
2022-12-08T15:49:25.444Z,5.25
2022-12-08T15:53:05.611Z,4.97
2022-12-08T15:57:10.610Z,5.80
2022-12-08T16:00:53.777Z,5.68
2022-12-08T16:08:45.142Z,6.50
2022-12-08T16:16:57.268Z,6.03
2022-12-08T16:21:06.558Z,5.87
2022-12-08T16:24:09.361Z,5.05
2022-12-08T16:28:02.934Z,6.53
2022-12-08T16:31:02.616Z,6.43
2022-12-08T16:34:44.262Z,4.87
2022-12-08T16:38:30.568Z,4.35
2022-12-08T16:42:25.433Z,4.65
2022-12-08T16:46:01.899Z,4.60
2022-12-08T16:49:28.340Z,5.05
2022-12-08T16:53:23.076Z,5.40
2022-12-08T16:56:44.918Z,5.45
2022-12-08T17:00:54.641Z,5.30
2022-12-08T17:04:32.675Z,5.07
2022-12-08T17:08:14.427Z,5.43
2022-12-08T17:11:48.083Z,5.22
2022-12-08T17:15:26.750Z,5.50
2022-12-08T17:18:31.063Z,5.10
2022-12-08T17:21:54.108Z,6.78
2022-12-08T17:25:19.626Z,5.25
2022-12-08T17:32:08.544Z,6.32
2022-12-08T17:35:18.869Z,5.55
2022-12-08T17:38:41.396Z,11.52
2022-12-08T17:42:07.877Z,7.85
2022-12-08T17:45:17.299Z,16.65
2022-12-08T17:48:40.985Z,8.68
2022-12-08T17:52:09.629Z,4.20
2022-12-08T17:55:24.231Z,6.07
2022-12-08T17:58:30.279Z,6.18
2022-12-08T18:01:57.434Z,5.55
2022-12-08T18:05:03.177Z,5.95
2022-12-08T18:08:14.229Z,6.15
2022-12-08T18:11:36.966Z,5.30
2022-12-08T18:14:42.275Z,5.05
2022-12-08T18:17:47.519Z,5.78
2022-12-08T18:20:54.412Z,6.53
2022-12-08T18:23:57.208Z,5.95
2022-12-08T18:27:01.596Z,5.55
2022-12-08T18:30:18.347Z,6.47
2022-12-08T18:33:26.380Z,6.00
2022-12-08T18:36:40.892Z,6.60
2022-12-08T18:40:24.182Z,5.55
2022-12-08T18:44:19.208Z,4.65
2022-12-08T18:47:25.822Z,6.22
2022-12-08T18:50:30.286Z,4.00
2022-12-08T18:53:34.673Z,4.37
2022-12-08T18:56:54.490Z,4.57
2022-12-08T19:00:07.784Z,4.95
2022-12-08T19:03:30.337Z,4.22
2022-12-08T19:06:33.708Z,4.25
2022-12-08T19:09:40.738Z,5.12
2022-12-08T19:13:04.511Z,4.30
2022-12-08T19:20:21.491Z,5.80
2022-12-08T19:23:29.204Z,4.12
2022-12-08T19:26:32.458Z,3.87
2022-12-08T19:29:35.275Z,3.92
2022-12-08T19:33:04.021Z,4.78
2022-12-08T19:36:50.066Z,5.32
2022-12-08T19:40:37.026Z,4.37
2022-12-08T19:44:40.320Z,5.37
2022-12-08T19:48:23.396Z,4.85
2022-12-08T19:52:08.191Z,4.45
2022-12-08T19:55:44.124Z,4.70
2022-12-08T19:59:03.300Z,5.30
2022-12-08T20:02:44.093Z,5.82
2022-12-08T20:05:59.886Z,4.75
2022-12-08T20:09:17.135Z,5.22
2022-12-08T20:12:22.575Z,5.40
2022-12-08T20:16:17.259Z,6.18
2022-12-08T20:19:44.128Z,5.50
2022-12-08T20:23:40.549Z,5.70
2022-12-08T20:27:19.762Z,6.25
2022-12-08T20:31:01.977Z,5.72
2022-12-08T20:34:26.174Z,6.07
2022-12-08T20:38:13.652Z,7.05
2022-12-08T20:41:55.324Z,6.45
2022-12-08T20:45:00.513Z,6.87
2022-12-08T20:48:04.121Z,5.05
2022-12-08T20:51:57.778Z,5.82
2022-12-08T20:55:00.869Z,4.35
2022-12-08T20:58:48.894Z,5.28
2022-12-08T21:02:28.214Z,5.35
2022-12-08T21:05:31.663Z,5.62
2022-12-08T21:08:55.408Z,6.62
2022-12-08T21:11:58.290Z,5.80
2022-12-08T21:15:01.939Z,6.47
2022-12-08T21:18:06.497Z,5.85
2022-12-08T21:21:28.269Z,6.10
2022-12-08T21:24:34.707Z,6.62
2022-12-08T21:28:18.715Z,5.90
2022-12-08T21:31:36.583Z,6.82
2022-12-08T21:35:12.837Z,7.40
2022-12-08T21:38:55.957Z,6.25
2022-12-08T21:42:45.236Z,7.62
2022-12-08T21:45:52.656Z,7.32
2022-12-08T21:49:19.214Z,6.43
2022-12-08T21:52:39.475Z,6.53
2022-12-08T21:56:09.573Z,5.87
2022-12-08T21:59:27.223Z,6.47
2022-12-08T22:02:51.255Z,6.70
2022-12-08T22:06:37.236Z,4.93
2022-12-08T22:09:40.157Z,5.82
2022-12-08T22:12:43.566Z,5.45
2022-12-08T22:16:11.516Z,5.07
2022-12-08T22:19:35.582Z,6.93
2022-12-08T22:22:58.232Z,6.68
2022-12-08T22:27:01.509Z,5.15
2022-12-08T22:30:25.184Z,7.47
2022-12-08T22:33:50.547Z,6.80
2022-12-08T22:36:57.925Z,7.87
2022-12-08T22:40:21.814Z,6.70
2022-12-08T22:44:09.248Z,7.87
2022-12-08T22:47:55.196Z,6.60
2022-12-08T22:51:18.466Z,7.10
2022-12-08T22:54:32.030Z,6.97
2022-12-08T22:57:36.605Z,7.85
2022-12-08T23:00:43.427Z,8.65
2022-12-08T23:04:26.216Z,7.57
2022-12-08T23:07:30.372Z,7.55
2022-12-08T23:10:34.532Z,6.90
2022-12-08T23:13:45.071Z,9.07
2022-12-08T23:16:49.247Z,7.53
2022-12-08T23:20:12.503Z,6.95
2022-12-08T23:23:18.893Z,6.53
2022-12-08T23:26:32.746Z,8.10
2022-12-08T23:30:22.327Z,7.43
2022-12-08T23:33:46.201Z,5.93
2022-12-08T23:37:09.423Z,8.07
2022-12-08T23:40:47.598Z,6.75
2022-12-08T23:44:23.387Z,6.75
2022-12-08T23:47:58.686Z,9.10
2022-12-08T23:51:02.683Z,6.25
2022-12-08T23:54:16.535Z,7.62
2022-12-08T23:57:40.203Z,7.10
